Time;durP1;ratioP1;P1;durP2;ratioP2;P2;SDS_P1;SDS_P2;PMS_P1;PMS_P2;Temp;Humidity;BMP_temperature;BMP_pressure;BME280_temperature;BME280_humidity;BME280_pressure;Samples;Min_cycle;Max_cycle;Signal;HPM_P1;HPM_P2
2023/01/14 00:00:49;;;;;;;6.30;1.90;;;19.80;58.60;;;;;;5071986;28;20047;-59
2023/01/14 00:03:14;;;;;;;5.65;1.92;;;19.80;58.70;;;;;;5071814;28;20087;-60
2023/01/14 00:05:41;;;;;;;4.95;1.90;;;19.80;58.60;;;;;;5071438;28;20504;-59
2023/01/14 00:08:07;;;;;;;6.93;1.90;;;19.70;59.20;;;;;;5072448;28;20488;-59
2023/01/14 00:10:32;;;;;;;5.93;2.00;;;19.70;58.60;;;;;;5071658;28;20145;-59
2023/01/14 00:12:58;;;;;;;5.70;2.03;;;19.70;58.50;;;;;;5066072;28;20072;-59
2023/01/14 00:15:23;;;;;;;4.40;2.22;;;19.70;58.60;;;;;;5070239;28;20047;-59
2023/01/14 00:17:50;;;;;;;6.05;2.47;;;19.70;58.50;;;;;;5072020;28;20059;-59
2023/01/14 00:20:15;;;;;;;4.93;2.00;;;19.70;58.60;;;;;;5070580;28;20052;-60
2023/01/14 00:22:41;;;;;;;5.75;1.98;;;19.70;58.50;;;;;;5071869;28;20440;-59
2023/01/14 00:25:07;;;;;;;6.05;2.13;;;19.70;58.50;;;;;;5071876;28;20444;-59
2023/01/14 00:27:33;;;;;;;5.32;1.83;;;19.70;58.60;;;;;;5069721;28;20120;-59
2023/01/14 00:29:58;;;;;;;7.15;2.35;;;19.70;58.60;;;;;;5071656;28;20148;-59
2023/01/14 00:32:24;;;;;;;5.75;1.70;;;19.60;58.60;;;;;;5071010;28;20036;-59
2023/01/14 00:34:49;;;;;;;7.65;2.30;;;19.60;58.60;;;;;;5075442;28;20135;-59
2023/01/14 00:37:15;;;;;;;6.05;2.13;;;19.60;58.50;;;;;;5075605;28;20078;-59
2023/01/14 00:39:40;;;;;;;5.45;2.47;;;19.60;58.50;;;;;;5074642;28;20454;-59
2023/01/14 00:42:06;;;;;;;6.50;2.35;;;19.60;58.50;;;;;;5075690;28;20098;-59
2023/01/14 00:44:32;;;;;;;7.03;2.63;;;19.60;58.60;;;;;;5075550;28;20047;-59
2023/01/14 00:46:57;;;;;;;5.18;2.65;;;19.60;58.60;;;;;;5075000;28;20400;-59
2023/01/14 00:49:23;;;;;;;6.25;1.98;;;19.60;58.60;;;;;;5075358;28;20036;-59
2023/01/14 00:51:49;;;;;;;5.57;2.03;;;19.60;58.60;;;;;;5075266;28;20044;-60
2023/01/14 00:54:15;;;;;;;6.10;2.03;;;19.60;58.60;;;;;;5074442;28;20044;-59
2023/01/14 00:56:41;;;;;;;4.78;1.80;;;19.60;58.60;;;;;;5075310;28;20136;-60
2023/01/14 00:59:08;;;;;;;6.40;1.98;;;19.60;58.60;;;;;;5075589;28;20064;-60
2023/01/14 01:01:33;;;;;;;5.38;2.30;;;19.50;58.60;;;;;;5073339;28;20033;-60
2023/01/14 01:03:59;;;;;;;8.93;2.25;;;19.50;58.60;;;;;;5075244;28;20057;-59
2023/01/14 01:06:25;;;;;;;6.57;2.58;;;19.50;58.60;;;;;;5074877;28;20089;-59
2023/01/14 01:09:00;;;;;;;8.40;2.28;;;19.50;58.60;;;;;;5074600;28;20045;-59
2023/01/14 01:11:25;;;;;;;7.07;2.10;;;19.50;58.60;;;;;;5074998;28;20119;-59
2023/01/14 01:13:51;;;;;;;7.50;2.30;;;19.50;58.60;;;;;;5075292;28;20197;-59
2023/01/14 01:16:23;;;;;;;5.65;1.95;;;19.50;58.60;;;;;;5073904;28;20052;-59
2023/01/14 01:18:49;;;;;;;7.72;2.70;;;19.50;58.60;;;;;;5074978;28;20052;-59
2023/01/14 01:21:15;;;;;;;9.43;2.65;;;19.50;58.60;;;;;;5070356;28;20119;-59
2023/01/14 01:23:41;;;;;;;4.30;1.58;;;19.50;58.60;;;;;;5074328;28;20170;-59
2023/01/14 01:26:08;;;;;;;5.53;1.98;;;19.40;58.50;;;;;;5074880;28;20501;-59
2023/01/14 01:28:33;;;;;;;5.85;2.20;;;19.40;58.50;;;;;;5074908;28;20133;-59
2023/01/14 01:31:04;;;;;;;5.95;1.90;;;19.40;58.60;;;;;;5074381;28;20075;-59
2023/01/14 01:33:30;;;;;;;5.93;1.90;;;19.40;58.60;;;;;;5074485;28;20053;-59
2023/01/14 01:36:07;;;;;;;5.32;1.98;;;19.40;58.60;;;;;;5073779;28;20033;-59
2023/01/14 01:38:32;;;;;;;6.72;1.90;;;19.40;58.50;;;;;;5074657;28;20044;-59
2023/01/14 01:40:58;;;;;;;6.15;1.65;;;19.40;58.60;;;;;;5073343;28;20058;-59
2023/01/14 01:43:26;;;;;;;9.45;2.45;;;19.40;58.60;;;;;;5071452;28;20200;-59
2023/01/14 01:45:52;;;;;;;6.28;2.28;;;19.40;58.60;;;;;;5072763;28;20072;-59
2023/01/14 01:48:22;;;;;;;7.18;1.92;;;19.40;58.60;;;;;;5074308;28;20122;-59
2023/01/14 01:51:18;;;;;;;6.07;2.03;;;19.40;58.60;;;;;;5072747;28;20037;-59
2023/01/14 01:53:47;;;;;;;4.15;1.70;;;19.30;58.50;;;;;;5069955;28;20500;-59
2023/01/14 01:56:14;;;;;;;7.15;2.30;;;19.30;58.60;;;;;;5073168;28;20041;-60
2023/01/14 01:58:40;;;;;;;6.85;2.22;;;19.30;58.50;;;;;;5072217;28;20475;-59
2023/01/14 02:01:05;;;;;;;7.13;2.10;;;19.30;59.30;;;;;;5073052;28;20134;-59
2023/01/14 02:03:49;;;;;;;5.93;2.05;;;19.30;58.60;;;;;;5074251;28;20044;-59
2023/01/14 02:06:15;;;;;;;6.53;2.17;;;19.30;58.50;;;;;;5072733;28;20044;-59
2023/01/14 02:08:42;;;;;;;7.80;2.30;;;19.30;58.60;;;;;;5074075;28;20048;-59
2023/01/14 02:11:33;;;;;;;5.60;1.77;;;19.30;58.60;;;;;;5073660;28;20055;-59
2023/01/14 02:14:15;;;;;;;4.50;1.63;;;19.20;58.50;;;;;;5065616;28;20117;-59
2023/01/14 02:17:07;;;;;;;7.30;2.10;;;19.30;58.60;;;;;;5052514;28;20110;-59
2023/01/14 02:19:44;;;;;;;5.00;1.52;;;19.30;58.60;;;;;;5052145;28;20049;-59
2023/01/14 02:22:31;;;;;;;5.47;2.00;;;19.30;58.60;;;;;;5053734;28;20071;-59
2023/01/14 02:25:20;;;;;;;4.72;1.52;;;19.30;58.60;;;;;;5053357;28;20052;-59
2023/01/14 02:27:49;;;;;;;7.03;2.30;;;19.30;58.70;;;;;;5052727;28;20051;-59
2023/01/14 02:30:36;;;;;;;5.20;1.60;;;19.20;58.60;;;;;;5052487;28;20063;-59
2023/01/14 02:33:14;;;;;;;4.72;1.50;;;19.20;58.60;;;;;;5044765;28;20053;-59
2023/01/14 02:35:46;;;;;;;5.22;1.85;;;19.20;58.50;;;;;;5052520;28;20045;-59
2023/01/14 02:38:18;;;;;;;5.43;1.65;;;19.20;58.60;;;;;;5053423;28;20051;-59
2023/01/14 02:41:10;;;;;;;6.20;2.00;;;19.20;58.60;;;;;;5051620;28;20099;-59
2023/01/14 02:44:10;;;;;;;5.70;1.70;;;19.20;58.60;;;;;;5052720;28;20159;-60
2023/01/14 02:46:52;;;;;;;4.28;1.63;;;19.20;58.60;;;;;;5066472;28;20044;-59
2023/01/14 02:49:20;;;;;;;4.35;1.80;;;19.20;58.60;;;;;;5052719;28;20033;-59
2023/01/14 02:51:46;;;;;;;7.00;1.75;;;19.20;58.60;;;;;;5052078;28;20056;-59
2023/01/14 02:54:12;;;;;;;4.97;1.33;;;19.20;58.70;;;;;;5047437;28;20033;-60
2023/01/14 02:56:37;;;;;;;3.83;1.55;;;19.10;58.50;;;;;;5050788;28;20048;-60
2023/01/14 02:59:34;;;;;;;6.30;2.00;;;19.20;58.60;;;;;;5052338;28;20174;-60
2023/01/14 03:02:13;;;;;;;4.20;1.40;;;19.10;58.50;;;;;;5051263;28;20049;-59
2023/01/14 03:04:50;;;;;;;5.53;1.60;;;19.10;58.60;;;;;;5051336;28;20049;-60
2023/01/14 03:07:29;;;;;;;4.70;1.33;;;19.10;58.60;;;;;;5052022;28;20080;-60
2023/01/14 03:10:24;;;;;;;6.03;1.50;;;19.10;58.60;;;;;;5050339;28;20048;-60
2023/01/14 03:13:23;;;;;;;5.68;1.40;;;19.10;58.60;;;;;;5051942;28;20103;-60
2023/01/14 03:15:56;;;;;;;4.18;1.70;;;19.10;58.60;;;;;;5050881;28;20040;-59
2023/01/14 03:18:31;;;;;;;5.70;1.50;;;19.10;58.70;;;;;;5052331;28;20552;-60
2023/01/14 03:21:02;;;;;;;4.38;1.40;;;19.10;58.60;;;;;;5051564;28;20136;-59
2023/01/14 03:23:28;;;;;;;7.90;1.85;;;19.10;58.60;;;;;;5051821;28;20048;-59
2023/01/14 03:25:53;;;;;;;5.60;1.55;;;19.10;58.60;;;;;;5051464;28;20048;-60
2023/01/14 03:28:22;;;;;;;4.80;1.25;;;19.10;58.60;;;;;;5053608;28;20033;-59
2023/01/14 03:30:50;;;;;;;4.25;1.40;;;19.10;58.70;;;;;;5071692;28;20045;-59
2023/01/14 03:33:21;;;;;;;4.15;1.58;;;19.10;58.70;;;;;;5070822;28;20488;-60
2023/01/14 03:35:46;;;;;;;4.65;1.40;;;19.10;58.70;;;;;;5070657;28;20040;-59
2023/01/14 03:38:12;;;;;;;5.10;1.27;;;19.10;58.70;;;;;;5070627;28;20403;-60
2023/01/14 03:40:38;;;;;;;4.55;1.35;;;19.10;58.70;;;;;;5071364;28;20048;-59
2023/01/14 03:43:06;;;;;;;5.20;1.48;;;19.10;58.70;;;;;;5070258;28;20036;-59
2023/01/14 03:45:34;;;;;;;4.57;1.50;;;19.10;58.70;;;;;;5071189;28;20086;-59
2023/01/14 03:47:59;;;;;;;4.70;1.38;;;19.10;58.70;;;;;;5071391;28;20044;-59
2023/01/14 03:50:29;;;;;;;4.28;1.23;;;19.10;58.70;;;;;;5070986;28;20586;-59
2023/01/14 03:53:15;;;;;;;4.00;1.33;;;19.10;58.70;;;;;;5071380;28;20480;-59
2023/01/14 03:55:43;;;;;;;4.85;1.20;;;19.10;58.70;;;;;;5070956;28;20041;-59
2023/01/14 03:58:11;;;;;;;;;;;19.10;58.70;;;;;;5071646;28;20051;-59
2023/01/14 04:00:40;;;;;;;;;;;19.10;58.70;;;;;;5072844;28;20363;-59
2023/01/14 04:03:08;;;;;;;2.92;1.02;;;19.10;58.80;;;;;;5054781;28;19921;-59
2023/01/14 04:05:34;;;;;;;7.50;1.80;;;19.10;58.70;;;;;;5070451;28;20040;-59
2023/01/14 04:08:01;;;;;;;5.38;1.35;;;19.20;58.70;;;;;;5072070;28;20209;-59
2023/01/14 04:10:26;;;;;;;3.72;1.38;;;19.20;58.80;;;;;;5070257;28;20051;-59
2023/01/14 04:15:36;;;;;;;4.65;1.33;;;19.20;58.80;;;;;;5072441;28;20536;-59
2023/01/14 04:18:02;;;;;;;5.35;1.20;;;19.20;58.80;;;;;;5065739;28;20127;-59
2023/01/14 04:20:27;;;;;;;2.88;1.17;;;19.20;58.70;;;;;;5071305;28;20088;-59
2023/01/14 04:22:53;;;;;;;4.28;1.15;;;19.30;58.80;;;;;;5072350;28;20048;-59
2023/01/14 04:25:18;;;;;;;3.63;1.17;;;19.30;58.80;;;;;;5071353;28;20139;-59
2023/01/14 04:27:44;;;;;;;3.38;0.98;;;19.30;58.80;;;;;;5071925;28;20118;-59
2023/01/14 04:30:10;;;;;;;3.92;1.20;;;19.30;58.80;;;;;;5071966;28;20044;-60
2023/01/14 04:32:35;;;;;;;5.10;1.25;;;19.30;58.70;;;;;;5071293;28;20044;-60
2023/01/14 04:35:02;;;;;;;2.83;0.98;;;19.30;58.70;;;;;;5071746;28;20041;-59
2023/01/14 04:37:27;;;;;;;4.82;1.17;;;19.30;58.70;;;;;;5071552;28;20527;-59
2023/01/14 04:39:53;;;;;;;4.63;1.00;;;19.30;58.70;;;;;;5071329;28;20119;-59
2023/01/14 04:42:28;;;;;;;5.05;1.10;;;19.40;58.80;;;;;;5071687;28;20499;-59
2023/01/14 04:44:59;;;;;;;4.80;1.00;;;19.40;58.80;;;;;;5071750;28;20048;-59
2023/01/14 04:47:25;;;;;;;5.10;1.10;;;19.40;58.80;;;;;;5069620;28;20041;-59
2023/01/14 04:49:50;;;;;;;3.60;0.95;;;19.40;58.80;;;;;;5071678;28;20052;-59
2023/01/14 04:52:16;;;;;;;4.63;1.00;;;19.40;58.70;;;;;;5071729;28;20437;-59
2023/01/14 04:54:42;;;;;;;3.28;1.17;;;19.40;58.70;;;;;;5071217;28;20048;-59
2023/01/14 04:57:07;;;;;;;4.88;1.17;;;19.50;58.70;;;;;;5071978;28;20052;-59
2023/01/14 04:59:33;;;;;;;4.20;1.15;;;19.50;58.70;;;;;;5071425;28;20036;-59
2023/01/14 05:01:59;;;;;;;5.28;1.42;;;19.50;58.70;;;;;;5052567;28;20049;-59
2023/01/14 05:04:24;;;;;;;4.38;1.05;;;19.50;58.70;;;;;;5065703;28;20045;-59
2023/01/14 05:06:50;;;;;;;3.30;1.00;;;19.50;58.70;;;;;;5070486;28;20412;-59
2023/01/14 05:09:15;;;;;;;4.95;1.23;;;19.50;58.70;;;;;;5070954;28;20090;-60
2023/01/14 05:11:41;;;;;;;3.75;0.98;;;19.50;58.60;;;;;;5071578;28;20047;-59
2023/01/14 05:14:06;;;;;;;4.05;1.20;;;19.50;58.60;;;;;;5070928;28;20459;-59
2023/01/14 05:16:32;;;;;;;3.90;0.90;;;19.50;58.70;;;;;;5069950;28;20105;-59
2023/01/14 05:18:57;;;;;;;4.20;1.00;;;19.60;58.70;;;;;;5071476;28;20060;-60
2023/01/14 05:21:24;;;;;;;3.83;0.85;;;19.60;58.70;;;;;;5073801;28;20110;-59
2023/01/14 05:23:49;;;;;;;4.97;1.70;;;19.60;58.70;;;;;;5074828;28;20084;-60
2023/01/14 05:26:15;;;;;;;3.55;0.90;;;19.60;58.70;;;;;;5074786;28;20075;-59
2023/01/14 05:28:40;;;;;;;4.45;1.00;;;19.60;58.70;;;;;;5074131;28;20044;-59
2023/01/14 05:31:06;;;;;;;3.08;0.98;;;19.60;58.60;;;;;;5074641;28;20407;-59
2023/01/14 05:33:32;;;;;;;4.63;1.38;;;19.60;58.60;;;;;;5073027;28;20047;-60
2023/01/14 05:35:58;;;;;;;4.65;1.30;;;19.60;58.60;;;;;;5073838;28;20050;-59
2023/01/14 05:38:23;;;;;;;3.47;1.00;;;19.60;58.60;;;;;;5074411;28;20048;-59
2023/01/14 05:40:49;;;;;;;3.05;1.27;;;19.60;58.60;;;;;;5073505;28;20045;-60
2023/01/14 05:46:05;;;;;;;4.03;0.82;;;19.60;58.60;;;;;;5074896;28;20044;-59
2023/01/14 05:48:31;;;;;;;3.00;0.90;;;19.60;58.60;;;;;;5074646;28;20093;-59
2023/01/14 05:50:57;;;;;;;4.65;0.98;;;19.70;58.60;;;;;;5068991;28;20040;-60
2023/01/14 05:53:23;;;;;;;2.95;0.70;;;19.70;58.60;;;;;;5074627;28;20045;-59
2023/01/14 05:55:49;;;;;;;4.47;1.15;;;19.70;58.60;;;;;;5075187;28;20041;-59
2023/01/14 05:58:14;;;;;;;3.40;1.08;;;19.70;58.60;;;;;;5073825;28;20051;-60
2023/01/14 06:06:37;;;;;;;4.57;1.05;;;19.70;58.60;;;;;;5074694;28;20045;-60
2023/01/14 06:09:06;;;;;;;3.13;1.10;;;19.70;58.60;;;;;;5073547;28;20105;-60
2023/01/14 06:11:35;;;;;;;3.28;0.93;;;19.70;58.60;;;;;;5073447;28;20510;-60
2023/01/14 06:14:01;;;;;;;3.63;1.05;;;19.70;58.50;;;;;;5074581;28;20045;-60
2023/01/14 06:16:28;;;;;;;3.85;1.00;;;19.80;58.60;;;;;;5065846;28;20159;-61
2023/01/14 06:18:55;;;;;;;2.72;0.68;;;19.70;58.50;;;;;;5053694;28;20455;-59
2023/01/14 06:21:25;;;;;;;2.45;0.60;;;19.70;58.50;;;;;;5053623;28;20107;-59
2023/01/14 06:23:51;;;;;;;2.83;1.10;;;19.70;58.50;;;;;;5054171;28;20454;-59
2023/01/14 06:26:18;;;;;;;6.10;1.10;;;19.80;58.60;;;;;;5053415;28;20087;-59
2023/01/14 06:28:44;;;;;;;3.60;1.00;;;19.80;58.60;;;;;;5054449;28;20139;-59
2023/01/14 06:31:14;;;;;;;3.95;1.08;;;19.80;58.50;;;;;;5052152;28;20128;-59
2023/01/14 06:33:40;;;;;;;4.22;0.88;;;19.80;58.50;;;;;;5053935;28;20041;-59
2023/01/14 06:36:07;;;;;;;3.08;0.77;;;19.80;58.50;;;;;;5053856;28;20045;-60
2023/01/14 06:38:33;;;;;;;8.60;1.02;;;19.80;58.50;;;;;;5053109;28;20041;-60
2023/01/14 06:40:59;;;;;;;3.90;0.90;;;19.80;58.60;;;;;;5054243;28;20033;-61
2023/01/14 06:43:25;;;;;;;6.13;0.93;;;19.80;58.50;;;;;;5053958;28;20041;-63
2023/01/14 06:45:54;;;;;;;9.50;1.10;;;19.80;58.50;;;;;;5052856;28;20059;-62
2023/01/14 06:48:20;;;;;;;4.30;0.93;;;19.80;58.50;;;;;;5053523;28;20041;-61
2023/01/14 06:50:45;;;;;;;6.38;1.30;;;19.80;58.50;;;;;;5048362;28;20041;-61
2023/01/14 06:53:11;;;;;;;3.17;0.90;;;19.80;58.50;;;;;;5052596;28;20051;-61
2023/01/14 06:55:36;;;;;;;3.92;1.10;;;19.80;58.50;;;;;;5053713;28;20041;-61
2023/01/14 06:58:02;;;;;;;6.63;1.10;;;19.80;58.50;;;;;;5052760;28;20136;-60
2023/01/14 07:00:27;;;;;;;4.55;1.10;;;19.80;58.60;;;;;;5052473;28;20549;-60
2023/01/14 07:02:53;;;;;;;6.25;1.40;;;19.80;58.60;;;;;;5053393;28;20049;-61
2023/01/14 07:05:18;;;;;;;5.03;1.02;;;19.80;58.60;;;;;;5053289;28;20151;-60
2023/01/14 07:07:45;;;;;;;4.88;0.90;;;19.80;58.70;;;;;;5052812;28;20075;-60
2023/01/14 07:10:11;;;;;;;6.38;1.20;;;19.80;58.70;;;;;;5052632;28;20047;-61
2023/01/14 07:12:37;;;;;;;4.82;1.05;;;19.80;58.80;;;;;;5052257;28;20033;-60
2023/01/14 07:15:02;;;;;;;10.80;1.02;;;19.80;58.80;;;;;;5050637;28;20091;-59
2023/01/14 07:17:28;;;;;;;7.53;1.30;;;19.80;59.00;;;;;;5052205;28;20052;-60
2023/01/14 07:19:53;;;;;;;4.75;1.02;;;19.90;59.20;;;;;;5052558;28;20052;-61
2023/01/14 07:22:19;;;;;;;5.60;1.45;;;19.90;59.30;;;;;;5052243;28;20044;-59
2023/01/14 07:24:45;;;;;;;8.43;1.67;;;19.90;59.40;;;;;;5053244;28;20048;-60
2023/01/14 07:27:10;;;;;;;3.88;1.08;;;19.90;59.50;;;;;;5052627;28;20047;-60
2023/01/14 07:29:36;;;;;;;4.15;1.02;;;19.90;59.60;;;;;;5052466;28;20033;-60
2023/01/14 07:32:01;;;;;;;7.40;1.05;;;19.90;59.50;;;;;;5053085;28;20123;-60
2023/01/14 07:34:27;;;;;;;4.88;1.10;;;19.90;60.10;;;;;;5051973;28;20118;-59
2023/01/14 07:36:52;;;;;;;4.55;1.00;;;19.90;59.50;;;;;;5052369;28;20077;-59
2023/01/14 07:39:18;;;;;;;8.02;1.45;;;19.90;59.50;;;;;;5052678;28;20069;-60
2023/01/14 07:41:43;;;;;;;4.72;0.95;;;19.90;59.60;;;;;;5051903;28;20041;-59
2023/01/14 07:44:09;;;;;;;6.63;1.20;;;19.90;59.60;;;;;;5052312;28;20041;-60
2023/01/14 07:46:35;;;;;;;4.40;1.10;;;19.90;59.70;;;;;;5052550;28;20112;-60
2023/01/14 07:49:00;;;;;;;6.18;1.08;;;20.00;59.90;;;;;;5051960;28;20499;-60
2023/01/14 07:51:26;;;;;;;7.85;1.60;;;20.00;59.90;;;;;;5052446;28;20039;-60
2023/01/14 07:53:51;;;;;;;10.55;1.58;;;20.00;59.90;;;;;;5047547;28;20534;-60
2023/01/14 07:56:17;;;;;;;6.85;1.33;;;20.00;59.90;;;;;;5051629;28;20451;-60
2023/01/14 07:58:42;;;;;;;6.75;1.25;;;20.00;60.00;;;;;;5052555;28;20131;-59
2023/01/14 08:01:09;;;;;;;16.92;1.52;;;20.00;60.00;;;;;;5052871;28;20112;-60
2023/01/14 08:03:34;;;;;;;8.75;1.50;;;20.00;60.00;;;;;;5051457;28;20125;-59
2023/01/14 08:06:01;;;;;;;8.63;1.77;;;20.00;60.00;;;;;;5052594;28;20041;-60
2023/01/14 08:08:27;;;;;;;6.57;1.27;;;20.00;59.90;;;;;;5051050;28;20504;-61
2023/01/14 08:10:53;;;;;;;5.07;1.08;;;20.00;59.90;;;;;;5052042;28;20041;-60
2023/01/14 08:13:18;;;;;;;9.27;1.52;;;20.00;59.90;;;;;;5052289;28;20052;-60
2023/01/14 08:15:44;;;;;;;5.25;1.45;;;20.00;60.00;;;;;;5052620;28;20088;-61
2023/01/14 08:18:10;;;;;;;7.93;1.20;;;20.00;60.00;;;;;;5051205;28;20041;-62
2023/01/14 08:20:35;;;;;;;6.53;1.58;;;20.00;60.00;;;;;;5051956;28;20061;-61
2023/01/14 08:23:01;;;;;;;5.65;1.38;;;20.00;60.00;;;;;;5052601;28;20041;-61
2023/01/14 08:25:27;;;;;;;7.38;1.80;;;20.00;60.00;;;;;;5051401;28;20489;-61
2023/01/14 08:27:52;;;;;;;4.88;1.17;;;20.10;60.10;;;;;;5052472;28;20404;-62
2023/01/14 08:30:18;;;;;;;7.32;1.35;;;20.10;60.10;;;;;;5051888;28;20099;-61
2023/01/14 08:32:43;;;;;;;4.47;1.10;;;20.10;60.00;;;;;;5051303;28;20048;-61
2023/01/14 08:35:09;;;;;;;7.60;1.45;;;20.10;60.00;;;;;;5051878;28;20408;-62
2023/01/14 08:37:35;;;;;;;8.25;1.70;;;20.10;60.00;;;;;;5052357;28;20045;-61
2023/01/14 08:40:01;;;;;;;8.88;1.60;;;20.10;59.90;;;;;;5051504;28;20033;-60
2023/01/14 08:42:26;;;;;;;5.97;1.25;;;20.10;60.00;;;;;;5051772;28;20489;-61
2023/01/14 08:44:52;;;;;;;8.55;1.38;;;20.10;60.60;;;;;;5051254;28;20081;-60
2023/01/14 08:47:17;;;;;;;5.50;1.50;;;20.10;60.00;;;;;;5052022;28;20044;-61
2023/01/14 08:49:43;;;;;;;7.65;1.38;;;20.10;60.00;;;;;;5052116;28;20056;-61
2023/01/14 08:52:09;;;;;;;5.35;1.25;;;20.10;60.00;;;;;;5042111;28;20037;-63
2023/01/14 08:54:34;;;;;;;4.72;1.10;;;20.10;60.00;;;;;;5046160;28;20399;-63
2023/01/14 08:57:00;;;;;;;5.72;1.33;;;20.10;60.10;;;;;;5060734;28;20067;-61
2023/01/14 08:59:26;;;;;;;5.25;1.50;;;20.10;60.10;;;;;;5052553;28;20060;-64
2023/01/14 09:01:52;;;;;;;6.55;1.20;;;20.10;60.10;;;;;;5052418;28;20615;-63
2023/01/14 09:04:18;;;;;;;7.78;1.70;;;20.10;60.10;;;;;;5053019;28;20037;-60
2023/01/14 09:17:40;;;;;;;5.72;1.20;;;20.10;60.10;;;;;;5067760;28;20052;-60
2023/01/14 09:20:09;;;;;;;7.85;1.58;;;20.20;60.10;;;;;;5074046;28;20048;-60
2023/01/14 09:22:35;;;;;;;5.78;1.42;;;20.20;60.10;;;;;;5073590;28;20041;-60
2023/01/14 09:25:00;;;;;;;7.43;1.27;;;20.20;60.10;;;;;;5075287;28;20048;-60
2023/01/14 09:27:28;;;;;;;5.40;1.40;;;20.20;60.10;;;;;;5074054;28;20032;-61
2023/01/14 09:29:54;;;;;;;4.53;1.55;;;20.10;60.10;;;;;;5075151;28;20049;-60
2023/01/14 09:32:19;;;;;;;5.80;1.45;;;20.10;60.10;;;;;;5074717;28;20055;-61
2023/01/14 09:34:48;;;;;;;7.47;1.30;;;20.20;60.20;;;;;;5068881;28;20081;-61
2023/01/14 09:37:19;;;;;;;3.95;1.20;;;20.20;60.10;;;;;;5041231;28;20037;-61
2023/01/14 09:39:45;;;;;;;4.70;1.33;;;20.20;60.10;;;;;;5039077;28;20087;-61
2023/01/14 09:42:14;;;;;;;4.18;1.33;;;20.20;60.10;;;;;;5034259;28;20041;-61
2023/01/14 09:44:40;;;;;;;6.90;1.30;;;20.20;60.10;;;;;;5040903;28;20076;-61
2023/01/14 09:47:09;;;;;;;6.47;1.45;;;20.20;60.10;;;;;;5027864;28;20049;-61
2023/01/14 09:49:35;;;;;;;5.18;1.48;;;20.20;60.10;;;;;;5046973;28;20059;-60
2023/01/14 09:52:35;;;;;;;4.88;1.15;;;20.20;60.10;;;;;;5047191;28;20524;-60
2023/01/14 09:55:10;;;;;;;4.85;1.23;;;20.10;60.00;;;;;;5058662;28;20040;-59
2023/01/14 09:57:51;;;;;;;5.10;1.50;;;20.10;60.00;;;;;;5051847;28;20045;-60
2023/01/14 10:00:27;;;;;;;5.40;1.20;;;20.10;60.00;;;;;;5052507;28;20049;-60
2023/01/14 10:03:31;;;;;;;5.32;1.45;;;20.10;60.00;;;;;;5052485;28;20485;-60
2023/01/14 10:06:01;;;;;;;6.00;1.00;;;20.10;60.00;;;;;;5068318;28;20055;-60
2023/01/14 10:08:31;;;;;;;6.05;1.52;;;20.10;60.00;;;;;;5072381;28;20064;-60
2023/01/14 10:10:57;;;;;;;7.57;1.60;;;20.10;60.00;;;;;;5073526;28;20089;-60
2023/01/14 10:13:47;;;;;;;3.80;0.90;;;20.10;60.10;;;;;;5073632;28;20127;-59
2023/01/14 10:16:21;;;;;;;5.00;1.40;;;20.10;60.20;;;;;;5052407;28;20404;-59
2023/01/14 10:18:56;;;;;;;5.95;1.27;;;20.10;60.20;;;;;;5065608;28;20076;-62
2023/01/14 10:21:30;;;;;;;3.78;1.40;;;20.10;60.20;;;;;;5026435;28;20512;-60
2023/01/14 10:23:55;;;;;;;8.60;1.27;;;20.10;60.00;;;;;;5058615;28;20045;-60
2023/01/14 10:26:21;;;;;;;7.13;1.50;;;20.10;60.00;;;;;;5053218;28;20063;-60
2023/01/14 10:28:51;;;;;;;5.05;1.30;;;20.10;60.00;;;;;;5053694;28;20065;-60
2023/01/14 10:31:28;;;;;;;6.35;1.55;;;20.10;60.00;;;;;;5048828;28;20062;-61
2023/01/14 10:33:53;;;;;;;10.15;1.50;;;20.10;59.90;;;;;;5036023;28;20397;-59
2023/01/14 10:36:22;;;;;;;6.50;1.33;;;20.10;60.00;;;;;;5046506;28;20040;-61
2023/01/14 10:38:47;;;;;;;5.95;1.35;;;20.10;60.10;;;;;;5068395;28;20041;-61
2023/01/14 10:41:13;;;;;;;6.95;1.92;;;20.10;60.10;;;;;;5073374;28;20082;-60
2023/01/14 10:43:42;;;;;;;7.55;1.30;;;20.10;60.20;;;;;;5072708;28;20045;-60
2023/01/14 10:46:17;;;;;;;6.82;1.55;;;20.10;60.20;;;;;;5071719;28;20045;-59
2023/01/14 10:48:57;;;;;;;6.50;1.45;;;20.10;60.10;;;;;;5072397;28;20154;-60
2023/01/14 10:51:32;;;;;;;6.57;1.08;;;20.10;60.20;;;;;;5071350;28;20048;-60
2023/01/14 10:54:28;;;;;;;3.55;1.00;;;20.10;60.20;;;;;;5073660;28;20041;-60
2023/01/14 10:57:08;;;;;;;7.18;1.20;;;20.00;60.10;;;;;;5068727;28;20527;-60
2023/01/14 10:59:44;;;;;;;6.60;1.20;;;20.00;60.10;;;;;;5041781;28;20077;-61
2023/01/14 11:02:29;;;;;;;6.22;1.30;;;20.00;60.10;;;;;;5043479;28;20098;-60
2023/01/14 11:04:54;;;;;;;4.85;1.17;;;20.00;60.10;;;;;;5051177;28;20041;-61
2023/01/14 11:07:27;;;;;;;5.57;1.13;;;20.00;60.20;;;;;;5033621;28;20174;-61
2023/01/14 11:09:53;;;;;;;4.25;1.27;;;20.00;60.20;;;;;;5052868;28;20052;-61
2023/01/14 11:12:27;;;;;;;4.00;0.88;;;20.00;60.20;;;;;;5051262;28;20484;-61
2023/01/14 11:14:53;;;;;;;4.65;1.17;;;20.00;60.20;;;;;;5050627;28;20519;-61
2023/01/14 11:17:29;;;;;;;3.25;0.90;;;20.00;60.20;;;;;;5050261;28;20072;-61
2023/01/14 11:20:23;;;;;;;3.80;1.00;;;20.00;60.20;;;;;;5049883;28;20049;-61
2023/01/14 11:23:17;;;;;;;5.82;1.10;;;20.00;60.20;;;;;;5050181;28;20040;-60
2023/01/14 11:25:50;;;;;;;3.50;0.95;;;20.00;60.10;;;;;;5015244;28;20065;-61
2023/01/14 11:28:16;;;;;;;4.03;1.13;;;20.00;60.30;;;;;;5038575;28;20108;-61
2023/01/14 11:30:42;;;;;;;4.28;1.25;;;20.00;60.20;;;;;;5051221;28;20571;-61
2023/01/14 11:33:18;;;;;;;3.75;1.15;;;20.00;60.20;;;;;;5051539;28;20059;-60
2023/01/14 11:35:51;;;;;;;5.30;1.08;;;20.00;60.20;;;;;;5050067;28;20400;-61
2023/01/14 11:38:19;;;;;;;4.45;1.15;;;20.00;60.30;;;;;;5050414;28;20510;-62
2023/01/14 11:43:33;;;;;;;;;;;20.00;60.30;;;;;;5051674;28;20134;-62
2023/01/14 11:46:12;;;;;;;6.90;1.10;;;19.90;60.20;;;;;;5052342;28;19971;-61
2023/01/14 11:48:39;;;;;;;4.85;0.77;;;19.90;60.20;;;;;;5051434;28;20044;-63
2023/01/14 11:51:05;;;;;;;5.20;0.85;;;19.90;60.30;;;;;;5047180;28;20052;-61
2023/01/14 11:53:50;;;;;;;4.13;0.90;;;19.90;60.20;;;;;;5041872;28;20405;-61
2023/01/14 11:56:31;;;;;;;4.00;0.88;;;19.90;60.20;;;;;;5049513;28;20041;-61
2023/01/14 11:58:57;;;;;;;6.00;0.93;;;19.90;60.10;;;;;;5050555;28;20048;-61
2023/01/14 12:01:29;;;;;;;3.50;0.82;;;19.90;60.10;;;;;;5057585;28;20087;-61
2023/01/14 12:04:16;;;;;;;4.70;0.77;;;19.90;60.20;;;;;;5050949;28;20045;-61
2023/01/14 12:06:46;;;;;;;3.80;0.95;;;19.90;60.20;;;;;;5050208;28;20496;-61
2023/01/14 12:09:18;;;;;;;6.13;1.00;;;19.90;60.20;;;;;;5051065;28;20082;-61
2023/01/14 12:11:50;;;;;;;3.70;1.08;;;19.90;60.20;;;;;;5050846;28;20102;-61
2023/01/14 12:17:05;;;;;;;3.05;0.70;;;19.90;60.20;;;;;;5049326;28;20052;-61
2023/01/14 12:19:34;;;;;;;5.47;0.70;;;19.90;60.20;;;;;;5033314;28;20071;-62
2023/01/14 12:22:39;;;;;;;5.50;1.63;;;19.90;60.20;;;;;;5050754;28;20052;-61
2023/01/14 12:25:08;;;;;;;4.85;0.80;;;19.90;60.20;;;;;;5049093;28;20053;-61
2023/01/14 12:27:43;;;;;;;2.83;0.73;;;19.80;60.20;;;;;;5051585;28;20049;-65
2023/01/14 12:30:15;;;;;;;2.88;0.70;;;19.80;60.20;;;;;;5053466;28;20052;-62
2023/01/14 12:32:42;;;;;;;5.13;0.82;;;19.90;60.40;;;;;;5056056;28;20049;-62
2023/01/14 12:35:07;;;;;;;6.18;1.35;;;19.90;60.40;;;;;;5054633;28;20488;-60
2023/01/14 12:37:39;;;;;;;4.43;0.95;;;19.90;60.40;;;;;;5053877;28;20051;-61
2023/01/14 12:46:12;;;;;;;6.70;1.40;;;19.90;60.70;;;;;;5054155;28;20105;-61
2023/01/14 12:48:38;;;;;;;5.60;1.77;;;19.90;60.70;;;;;;5066220;28;20052;-61
2023/01/14 12:51:15;;;;;;;7.75;1.80;;;19.90;60.70;;;;;;5073224;28;20040;-61
2023/01/14 12:53:49;;;;;;;7.55;1.50;;;20.00;60.80;;;;;;5051693;28;20041;-61
2023/01/14 12:56:32;;;;;;;6.47;1.85;;;20.00;60.80;;;;;;5051089;28;20044;-61
2023/01/14 12:58:59;;;;;;;7.72;1.60;;;20.00;60.80;;;;;;5042992;28;20049;-61
2023/01/14 13:01:27;;;;;;;7.35;1.45;;;20.00;60.80;;;;;;5051412;28;20041;-61
2023/01/14 13:03:58;;;;;;;5.82;1.50;;;20.00;60.80;;;;;;5048897;28;20116;-61
2023/01/14 13:06:30;;;;;;;9.55;1.85;;;20.00;60.80;;;;;;5052244;28;20447;-62
2023/01/14 13:08:56;;;;;;;6.45;1.45;;;20.00;60.80;;;;;;5055280;28;20055;-61
2023/01/14 13:11:28;;;;;;;8.45;1.70;;;20.10;60.80;;;;;;5053585;28;20052;-61
2023/01/14 13:13:58;;;;;;;6.35;1.55;;;20.10;60.70;;;;;;5053149;28;20045;-61
2023/01/14 13:16:35;;;;;;;6.75;1.75;;;20.10;60.80;;;;;;5055683;28;20049;-63
2023/01/14 13:19:06;;;;;;;6.88;1.77;;;20.10;60.80;;;;;;5053056;28;20135;-67
2023/01/14 13:22:00;;;;;;;5.18;1.85;;;20.10;60.80;;;;;;5053610;28;20041;-66
2023/01/14 13:24:25;;;;;;;4.60;1.15;;;20.10;60.80;;;;;;5054699;28;20544;-68
2023/01/14 13:26:52;;;;;;;5.15;1.48;;;20.10;60.70;;;;;;5054386;28;20127;-62
2023/01/14 13:29:20;;;;;;;5.72;1.75;;;20.10;60.70;;;;;;5054792;28;20033;-68
2023/01/14 13:31:46;;;;;;;6.22;1.20;;;20.10;60.60;;;;;;5055065;28;20041;-63
2023/01/14 13:34:20;;;;;;;5.55;1.10;;;20.10;60.60;;;;;;5052336;28;20064;-64